sensor_id;sensor_type;location;lat;lon;timestamp;temperature;humidity
20041;DHT22;10181;48.072;9.884;2023-03-01T00:01:08;0.10;99.90
20041;DHT22;10181;48.072;9.884;2023-03-01T00:03:35;0.10;99.90
20041;DHT22;10181;48.072;9.884;2023-03-01T00:06:01;0.10;99.90
20041;DHT22;10181;48.072;9.884;2023-03-01T00:08:28;0.10;99.90
20041;DHT22;10181;48.072;9.884;2023-03-01T00:11:12;0.10;99.90
20041;DHT22;10181;48.072;9.884;2023-03-01T00:13:39;0.10;99.90
20041;DHT22;10181;48.072;9.884;2023-03-01T00:16:09;0.10;99.90
20041;DHT22;10181;48.072;9.884;2023-03-01T00:18:35;0.10;99.90
20041;DHT22;10181;48.072;9.884;2023-03-01T00:21:01;0.10;99.90
20041;DHT22;10181;48.072;9.884;2023-03-01T00:23:27;0.10;99.90
20041;DHT22;10181;48.072;9.884;2023-03-01T00:25:53;0.10;99.90
20041;DHT22;10181;48.072;9.884;2023-03-01T00:28:19;0.00;99.90
20041;DHT22;10181;48.072;9.884;2023-03-01T00:30:45;0.10;99.90
20041;DHT22;10181;48.072;9.884;2023-03-01T00:33:11;0.00;99.90
20041;DHT22;10181;48.072;9.884;2023-03-01T00:35:36;0.00;99.90
20041;DHT22;10181;48.072;9.884;2023-03-01T00:38:03;0.10;99.90
20041;DHT22;10181;48.072;9.884;2023-03-01T00:40:30;0.10;99.90
20041;DHT22;10181;48.072;9.884;2023-03-01T00:42:57;0.10;99.90
20041;DHT22;10181;48.072;9.884;2023-03-01T00:45:23;0.10;99.90
20041;DHT22;10181;48.072;9.884;2023-03-01T00:47:49;0.10;99.90
20041;DHT22;10181;48.072;9.884;2023-03-01T00:50:15;0.10;99.90
20041;DHT22;10181;48.072;9.884;2023-03-01T00:52:41;0.10;99.90
20041;DHT22;10181;48.072;9.884;2023-03-01T00:55:07;0.10;99.90
20041;DHT22;10181;48.072;9.884;2023-03-01T00:57:32;0.10;99.90
20041;DHT22;10181;48.072;9.884;2023-03-01T00:59:58;0.00;99.90
20041;DHT22;10181;48.072;9.884;2023-03-01T01:02:24;0.10;99.90
20041;DHT22;10181;48.072;9.884;2023-03-01T01:04:50;0.10;99.90
20041;DHT22;10181;48.072;9.884;2023-03-01T01:07:16;0.10;99.90
20041;DHT22;10181;48.072;9.884;2023-03-01T01:09:41;0.00;99.90
20041;DHT22;10181;48.072;9.884;2023-03-01T01:12:07;0.10;99.90
20041;DHT22;10181;48.072;9.884;2023-03-01T01:14:33;0.10;99.90
20041;DHT22;10181;48.072;9.884;2023-03-01T01:16:59;0.10;99.90
20041;DHT22;10181;48.072;9.884;2023-03-01T01:19:25;0.10;99.90
20041;DHT22;10181;48.072;9.884;2023-03-01T01:21:51;0.00;99.90
20041;DHT22;10181;48.072;9.884;2023-03-01T01:24:17;0.00;99.90
20041;DHT22;10181;48.072;9.884;2023-03-01T01:26:43;0.00;99.90
20041;DHT22;10181;48.072;9.884;2023-03-01T01:29:09;0.00;99.90
20041;DHT22;10181;48.072;9.884;2023-03-01T01:31:36;0.00;99.90
20041;DHT22;10181;48.072;9.884;2023-03-01T01:34:06;0.00;99.90
20041;DHT22;10181;48.072;9.884;2023-03-01T01:36:32;0.00;99.90
20041;DHT22;10181;48.072;9.884;2023-03-01T01:38:58;0.00;99.90
20041;DHT22;10181;48.072;9.884;2023-03-01T01:41:26;0.00;99.90
20041;DHT22;10181;48.072;9.884;2023-03-01T01:46:41;0.00;99.90
20041;DHT22;10181;48.072;9.884;2023-03-01T01:49:17;0.00;99.90
20041;DHT22;10181;48.072;9.884;2023-03-01T01:51:45;0.00;99.90
20041;DHT22;10181;48.072;9.884;2023-03-01T01:54:35;0.00;99.90
20041;DHT22;10181;48.072;9.884;2023-03-01T01:57:05;0.00;99.90
20041;DHT22;10181;48.072;9.884;2023-03-01T01:59:32;0.00;99.90
20041;DHT22;10181;48.072;9.884;2023-03-01T02:02:01;0.00;99.90
20041;DHT22;10181;48.072;9.884;2023-03-01T02:04:29;0.00;99.90
20041;DHT22;10181;48.072;9.884;2023-03-01T02:07:16;0.00;99.90
20041;DHT22;10181;48.072;9.884;2023-03-01T02:09:46;-0.10;99.90
20041;DHT22;10181;48.072;9.884;2023-03-01T02:12:16;0.00;99.90
20041;DHT22;10181;48.072;9.884;2023-03-01T02:14:43;0.00;99.90
20041;DHT22;10181;48.072;9.884;2023-03-01T02:17:09;-0.10;99.90
20041;DHT22;10181;48.072;9.884;2023-03-01T02:33:09;0.00;99.90
20041;DHT22;10181;48.072;9.884;2023-03-01T02:35:37;-0.10;99.90
20041;DHT22;10181;48.072;9.884;2023-03-01T02:38:06;-0.10;99.90
20041;DHT22;10181;48.072;9.884;2023-03-01T02:40:34;-0.10;99.90
20041;DHT22;10181;48.072;9.884;2023-03-01T02:42:59;-0.10;99.90
20041;DHT22;10181;48.072;9.884;2023-03-01T02:45:26;-0.10;99.90
20041;DHT22;10181;48.072;9.884;2023-03-01T02:47:56;-0.10;99.90
20041;DHT22;10181;48.072;9.884;2023-03-01T02:56:15;-0.10;99.90
20041;DHT22;10181;48.072;9.884;2023-03-01T02:58:41;-0.10;99.90
20041;DHT22;10181;48.072;9.884;2023-03-01T03:01:11;0.00;99.90
20041;DHT22;10181;48.072;9.884;2023-03-01T03:03:36;0.00;99.90
20041;DHT22;10181;48.072;9.884;2023-03-01T03:06:02;-0.10;99.90
20041;DHT22;10181;48.072;9.884;2023-03-01T03:08:27;0.00;99.90
20041;DHT22;10181;48.072;9.884;2023-03-01T03:10:53;-0.10;99.90
20041;DHT22;10181;48.072;9.884;2023-03-01T03:13:19;-0.10;99.90
20041;DHT22;10181;48.072;9.884;2023-03-01T03:15:44;0.00;99.90
20041;DHT22;10181;48.072;9.884;2023-03-01T03:18:13;-0.10;99.90
20041;DHT22;10181;48.072;9.884;2023-03-01T03:20:40;-0.10;99.90
20041;DHT22;10181;48.072;9.884;2023-03-01T03:23:06;-0.10;99.90
20041;DHT22;10181;48.072;9.884;2023-03-01T03:25:32;-0.10;99.90
20041;DHT22;10181;48.072;9.884;2023-03-01T03:27:58;-0.10;99.90
20041;DHT22;10181;48.072;9.884;2023-03-01T03:30:26;-0.10;99.90
20041;DHT22;10181;48.072;9.884;2023-03-01T03:32:53;-0.10;99.90
20041;DHT22;10181;48.072;9.884;2023-03-01T03:35:29;-0.10;99.90
20041;DHT22;10181;48.072;9.884;2023-03-01T03:37:57;-0.10;99.90
20041;DHT22;10181;48.072;9.884;2023-03-01T03:40:40;-0.10;99.90
20041;DHT22;10181;48.072;9.884;2023-03-01T03:43:11;-0.10;99.90
20041;DHT22;10181;48.072;9.884;2023-03-01T03:45:37;0.00;99.90
20041;DHT22;10181;48.072;9.884;2023-03-01T03:48:05;0.00;99.90
20041;DHT22;10181;48.072;9.884;2023-03-01T03:50:31;-0.10;99.90
20041;DHT22;10181;48.072;9.884;2023-03-01T03:52:57;0.00;99.90
20041;DHT22;10181;48.072;9.884;2023-03-01T03:55:22;-0.10;99.90
20041;DHT22;10181;48.072;9.884;2023-03-01T03:57:48;-0.10;99.90
20041;DHT22;10181;48.072;9.884;2023-03-01T04:00:20;-0.10;99.90
20041;DHT22;10181;48.072;9.884;2023-03-01T04:02:47;-0.10;99.90
20041;DHT22;10181;48.072;9.884;2023-03-01T04:05:15;0.00;99.90
20041;DHT22;10181;48.072;9.884;2023-03-01T04:07:42;-0.10;99.90
20041;DHT22;10181;48.072;9.884;2023-03-01T04:10:10;-0.10;99.90
20041;DHT22;10181;48.072;9.884;2023-03-01T04:12:36;-0.10;99.90
20041;DHT22;10181;48.072;9.884;2023-03-01T04:15:07;-0.10;99.90
20041;DHT22;10181;48.072;9.884;2023-03-01T04:17:42;-0.10;99.90
20041;DHT22;10181;48.072;9.884;2023-03-01T04:20:14;-0.10;99.90
20041;DHT22;10181;48.072;9.884;2023-03-01T04:22:43;-0.10;99.90
20041;DHT22;10181;48.072;9.884;2023-03-01T04:25:12;-0.10;99.90
20041;DHT22;10181;48.072;9.884;2023-03-01T04:27:40;-0.10;99.90
20041;DHT22;10181;48.072;9.884;2023-03-01T04:30:07;-0.10;99.90
20041;DHT22;10181;48.072;9.884;2023-03-01T04:32:33;-0.10;99.90
20041;DHT22;10181;48.072;9.884;2023-03-01T04:34:59;-0.10;99.90
20041;DHT22;10181;48.072;9.884;2023-03-01T04:37:27;-0.10;99.90
20041;DHT22;10181;48.072;9.884;2023-03-01T04:39:53;-0.10;99.90
20041;DHT22;10181;48.072;9.884;2023-03-01T04:42:18;-0.10;99.90
20041;DHT22;10181;48.072;9.884;2023-03-01T04:44:45;-0.20;99.90
20041;DHT22;10181;48.072;9.884;2023-03-01T04:47:11;-0.20;99.90
20041;DHT22;10181;48.072;9.884;2023-03-01T04:49:37;-0.20;99.90
20041;DHT22;10181;48.072;9.884;2023-03-01T04:52:04;-0.20;99.90
20041;DHT22;10181;48.072;9.884;2023-03-01T04:54:33;-0.20;99.90
20041;DHT22;10181;48.072;9.884;2023-03-01T04:57:00;-0.10;99.90
20041;DHT22;10181;48.072;9.884;2023-03-01T04:59:26;-0.20;99.90
20041;DHT22;10181;48.072;9.884;2023-03-01T05:01:53;-0.10;99.90
20041;DHT22;10181;48.072;9.884;2023-03-01T05:04:23;-0.20;99.90
20041;DHT22;10181;48.072;9.884;2023-03-01T05:06:48;-0.20;99.90
20041;DHT22;10181;48.072;9.884;2023-03-01T05:09:14;-0.10;99.90
20041;DHT22;10181;48.072;9.884;2023-03-01T05:11:40;-0.10;99.90
20041;DHT22;10181;48.072;9.884;2023-03-01T05:14:07;-0.10;99.90
20041;DHT22;10181;48.072;9.884;2023-03-01T05:16:33;-0.10;99.90
20041;DHT22;10181;48.072;9.884;2023-03-01T05:18:59;-0.10;99.90
20041;DHT22;10181;48.072;9.884;2023-03-01T05:21:25;-0.20;99.90
20041;DHT22;10181;48.072;9.884;2023-03-01T05:23:51;-0.20;99.90
20041;DHT22;10181;48.072;9.884;2023-03-01T05:26:19;-0.20;99.90
20041;DHT22;10181;48.072;9.884;2023-03-01T05:28:47;-0.10;99.90
20041;DHT22;10181;48.072;9.884;2023-03-01T05:31:12;-0.10;99.90
20041;DHT22;10181;48.072;9.884;2023-03-01T05:33:40;-0.10;99.90
20041;DHT22;10181;48.072;9.884;2023-03-01T05:36:10;-0.10;99.90
20041;DHT22;10181;48.072;9.884;2023-03-01T05:38:36;0.00;99.90
20041;DHT22;10181;48.072;9.884;2023-03-01T05:41:02;0.00;99.90
20041;DHT22;10181;48.072;9.884;2023-03-01T05:43:31;0.00;99.90
20041;DHT22;10181;48.072;9.884;2023-03-01T05:45:59;0.00;99.90
20041;DHT22;10181;48.072;9.884;2023-03-01T05:48:25;0.00;99.90
20041;DHT22;10181;48.072;9.884;2023-03-01T05:50:51;0.00;99.90
20041;DHT22;10181;48.072;9.884;2023-03-01T05:53:19;0.00;99.90
20041;DHT22;10181;48.072;9.884;2023-03-01T05:55:47;0.10;99.90
20041;DHT22;10181;48.072;9.884;2023-03-01T05:58:17;0.00;99.90
20041;DHT22;10181;48.072;9.884;2023-03-01T06:00:45;0.00;99.90
20041;DHT22;10181;48.072;9.884;2023-03-01T06:03:13;0.10;99.90
20041;DHT22;10181;48.072;9.884;2023-03-01T06:05:39;0.10;99.90
20041;DHT22;10181;48.072;9.884;2023-03-01T06:08:05;0.00;99.90
20041;DHT22;10181;48.072;9.884;2023-03-01T06:10:31;0.00;99.90
20041;DHT22;10181;48.072;9.884;2023-03-01T06:12:57;0.00;99.90
20041;DHT22;10181;48.072;9.884;2023-03-01T06:15:24;0.00;99.90
20041;DHT22;10181;48.072;9.884;2023-03-01T06:17:50;0.00;99.90
20041;DHT22;10181;48.072;9.884;2023-03-01T06:20:18;0.00;99.90
20041;DHT22;10181;48.072;9.884;2023-03-01T06:22:44;0.10;99.90
20041;DHT22;10181;48.072;9.884;2023-03-01T06:25:12;0.10;99.90
20041;DHT22;10181;48.072;9.884;2023-03-01T06:27:39;0.10;99.90
20041;DHT22;10181;48.072;9.884;2023-03-01T06:30:05;0.10;99.90
20041;DHT22;10181;48.072;9.884;2023-03-01T06:32:32;0.10;99.90
20041;DHT22;10181;48.072;9.884;2023-03-01T06:34:58;0.10;99.90
20041;DHT22;10181;48.072;9.884;2023-03-01T06:37:24;0.10;99.90
20041;DHT22;10181;48.072;9.884;2023-03-01T06:39:50;0.10;99.90
20041;DHT22;10181;48.072;9.884;2023-03-01T06:42:16;0.10;99.90
20041;DHT22;10181;48.072;9.884;2023-03-01T06:44:41;0.10;99.90
20041;DHT22;10181;48.072;9.884;2023-03-01T06:47:07;0.10;99.90
20041;DHT22;10181;48.072;9.884;2023-03-01T06:49:33;0.10;99.90
20041;DHT22;10181;48.072;9.884;2023-03-01T06:51:58;0.10;99.90
20041;DHT22;10181;48.072;9.884;2023-03-01T06:54:24;0.10;99.90
20041;DHT22;10181;48.072;9.884;2023-03-01T06:56:50;0.10;99.90
20041;DHT22;10181;48.072;9.884;2023-03-01T06:59:16;0.20;99.90
20041;DHT22;10181;48.072;9.884;2023-03-01T07:01:42;0.20;99.90
20041;DHT22;10181;48.072;9.884;2023-03-01T07:04:10;0.20;99.90
20041;DHT22;10181;48.072;9.884;2023-03-01T07:06:36;0.20;99.90
20041;DHT22;10181;48.072;9.884;2023-03-01T07:09:02;0.20;99.90
20041;DHT22;10181;48.072;9.884;2023-03-01T07:11:27;0.30;99.90
20041;DHT22;10181;48.072;9.884;2023-03-01T07:13:53;0.20;99.90
20041;DHT22;10181;48.072;9.884;2023-03-01T07:16:19;0.20;99.90
20041;DHT22;10181;48.072;9.884;2023-03-01T07:18:45;0.20;99.90
20041;DHT22;10181;48.072;9.884;2023-03-01T07:21:13;0.20;99.90
20041;DHT22;10181;48.072;9.884;2023-03-01T07:23:39;0.20;99.90
20041;DHT22;10181;48.072;9.884;2023-03-01T07:26:05;0.20;99.90
20041;DHT22;10181;48.072;9.884;2023-03-01T07:28:30;0.20;99.90
20041;DHT22;10181;48.072;9.884;2023-03-01T07:31:01;0.20;99.90
20041;DHT22;10181;48.072;9.884;2023-03-01T07:33:27;0.20;99.90
20041;DHT22;10181;48.072;9.884;2023-03-01T07:36:00;0.20;99.90
20041;DHT22;10181;48.072;9.884;2023-03-01T07:38:27;0.20;99.90
20041;DHT22;10181;48.072;9.884;2023-03-01T07:40:53;0.20;99.90
20041;DHT22;10181;48.072;9.884;2023-03-01T07:43:22;0.30;99.90
20041;DHT22;10181;48.072;9.884;2023-03-01T07:45:48;0.20;99.90
20041;DHT22;10181;48.072;9.884;2023-03-01T07:48:13;0.20;99.90
20041;DHT22;10181;48.072;9.884;2023-03-01T07:50:39;0.20;99.90
20041;DHT22;10181;48.072;9.884;2023-03-01T07:53:05;0.20;99.90
20041;DHT22;10181;48.072;9.884;2023-03-01T07:55:30;0.30;99.90
20041;DHT22;10181;48.072;9.884;2023-03-01T07:57:56;0.30;99.90
20041;DHT22;10181;48.072;9.884;2023-03-01T08:00:21;0.20;99.90
20041;DHT22;10181;48.072;9.884;2023-03-01T08:02:47;0.30;99.90
20041;DHT22;10181;48.072;9.884;2023-03-01T08:05:13;0.30;99.90
20041;DHT22;10181;48.072;9.884;2023-03-01T08:07:40;0.30;99.90
20041;DHT22;10181;48.072;9.884;2023-03-01T08:10:06;0.30;99.90
20041;DHT22;10181;48.072;9.884;2023-03-01T08:12:32;0.30;99.90
20041;DHT22;10181;48.072;9.884;2023-03-01T08:14:58;0.30;99.90
20041;DHT22;10181;48.072;9.884;2023-03-01T08:17:23;0.30;99.90
20041;DHT22;10181;48.072;9.884;2023-03-01T08:19:49;0.30;99.90
20041;DHT22;10181;48.072;9.884;2023-03-01T08:22:14;0.40;99.90
20041;DHT22;10181;48.072;9.884;2023-03-01T08:24:40;0.40;99.90
20041;DHT22;10181;48.072;9.884;2023-03-01T08:27:06;0.40;99.90
20041;DHT22;10181;48.072;9.884;2023-03-01T08:29:32;0.40;99.90
20041;DHT22;10181;48.072;9.884;2023-03-01T08:31:58;0.40;99.90
20041;DHT22;10181;48.072;9.884;2023-03-01T08:34:24;0.50;99.90
20041;DHT22;10181;48.072;9.884;2023-03-01T08:36:49;0.40;99.90
20041;DHT22;10181;48.072;9.884;2023-03-01T08:39:18;0.40;99.90
20041;DHT22;10181;48.072;9.884;2023-03-01T08:41:44;0.40;99.90
20041;DHT22;10181;48.072;9.884;2023-03-01T08:44:12;0.40;99.90
20041;DHT22;10181;48.072;9.884;2023-03-01T08:46:40;0.50;99.90
20041;DHT22;10181;48.072;9.884;2023-03-01T08:49:07;0.40;99.90
20041;DHT22;10181;48.072;9.884;2023-03-01T08:51:33;0.50;99.90
20041;DHT22;10181;48.072;9.884;2023-03-01T08:54:03;0.50;99.90
20041;DHT22;10181;48.072;9.884;2023-03-01T08:56:28;0.50;99.90
20041;DHT22;10181;48.072;9.884;2023-03-01T08:58:54;0.60;99.90
20041;DHT22;10181;48.072;9.884;2023-03-01T09:01:20;0.60;99.90
20041;DHT22;10181;48.072;9.884;2023-03-01T09:03:45;0.60;99.90
20041;DHT22;10181;48.072;9.884;2023-03-01T09:06:11;0.60;99.90
20041;DHT22;10181;48.072;9.884;2023-03-01T09:08:39;0.60;99.90
20041;DHT22;10181;48.072;9.884;2023-03-01T09:11:06;0.60;99.90
20041;DHT22;10181;48.072;9.884;2023-03-01T09:13:33;0.70;99.90
20041;DHT22;10181;48.072;9.884;2023-03-01T09:16:00;0.70;99.90
20041;DHT22;10181;48.072;9.884;2023-03-01T09:18:27;0.70;99.90
20041;DHT22;10181;48.072;9.884;2023-03-01T09:21:04;0.70;99.90
20041;DHT22;10181;48.072;9.884;2023-03-01T09:23:34;0.70;99.90
20041;DHT22;10181;48.072;9.884;2023-03-01T09:26:01;0.80;99.90
20041;DHT22;10181;48.072;9.884;2023-03-01T09:28:27;0.80;99.90
20041;DHT22;10181;48.072;9.884;2023-03-01T09:30:52;0.80;99.90
20041;DHT22;10181;48.072;9.884;2023-03-01T09:33:18;0.80;99.90
20041;DHT22;10181;48.072;9.884;2023-03-01T09:35:44;0.70;99.90
20041;DHT22;10181;48.072;9.884;2023-03-01T09:38:13;0.80;99.90
20041;DHT22;10181;48.072;9.884;2023-03-01T09:40:43;0.80;99.90
20041;DHT22;10181;48.072;9.884;2023-03-01T09:43:21;0.80;99.90
20041;DHT22;10181;48.072;9.884;2023-03-01T09:45:49;0.80;99.90
20041;DHT22;10181;48.072;9.884;2023-03-01T09:48:19;0.80;99.90
20041;DHT22;10181;48.072;9.884;2023-03-01T09:50:47;0.80;99.90
20041;DHT22;10181;48.072;9.884;2023-03-01T09:53:18;0.80;99.90
20041;DHT22;10181;48.072;9.884;2023-03-01T09:56:25;0.80;99.90
20041;DHT22;10181;48.072;9.884;2023-03-01T10:01:34;0.80;99.90
20041;DHT22;10181;48.072;9.884;2023-03-01T10:09:43;0.80;99.90
20041;DHT22;10181;48.072;9.884;2023-03-01T10:12:12;0.80;99.90
20041;DHT22;10181;48.072;9.884;2023-03-01T10:15:05;0.80;99.90
20041;DHT22;10181;48.072;9.884;2023-03-01T10:17:37;0.90;99.90
20041;DHT22;10181;48.072;9.884;2023-03-01T10:20:20;1.00;99.90
20041;DHT22;10181;48.072;9.884;2023-03-01T10:22:47;1.00;99.90
20041;DHT22;10181;48.072;9.884;2023-03-01T10:25:19;1.00;99.90
20041;DHT22;10181;48.072;9.884;2023-03-01T10:27:54;1.10;99.90
20041;DHT22;10181;48.072;9.884;2023-03-01T10:30:41;1.10;99.90
20041;DHT22;10181;48.072;9.884;2023-03-01T10:33:24;1.00;99.90
20041;DHT22;10181;48.072;9.884;2023-03-01T10:35:51;1.00;99.90
20041;DHT22;10181;48.072;9.884;2023-03-01T10:38:18;0.90;99.90
20041;DHT22;10181;48.072;9.884;2023-03-01T10:40:59;0.90;99.90
20041;DHT22;10181;48.072;9.884;2023-03-01T10:43:32;0.90;99.90
20041;DHT22;10181;48.072;9.884;2023-03-01T10:46:25;0.90;99.90
20041;DHT22;10181;48.072;9.884;2023-03-01T10:49:16;1.00;99.90
20041;DHT22;10181;48.072;9.884;2023-03-01T10:51:44;1.10;99.90
20041;DHT22;10181;48.072;9.884;2023-03-01T10:54:22;1.20;99.90
20041;DHT22;10181;48.072;9.884;2023-03-01T10:57:01;1.20;99.90
20041;DHT22;10181;48.072;9.884;2023-03-01T11:02:04;1.30;99.90
20041;DHT22;10181;48.072;9.884;2023-03-01T11:04:38;1.20;99.90
20041;DHT22;10181;48.072;9.884;2023-03-01T11:07:04;1.30;99.90
20041;DHT22;10181;48.072;9.884;2023-03-01T11:09:34;1.20;99.90
20041;DHT22;10181;48.072;9.884;2023-03-01T11:12:08;1.30;99.90
20041;DHT22;10181;48.072;9.884;2023-03-01T11:14:47;1.40;99.90
20041;DHT22;10181;48.072;9.884;2023-03-01T11:17:30;1.40;99.90
20041;DHT22;10181;48.072;9.884;2023-03-01T11:22:54;1.40;99.90
20041;DHT22;10181;48.072;9.884;2023-03-01T11:25:56;1.50;99.90
20041;DHT22;10181;48.072;9.884;2023-03-01T11:28:16;1.50;99.90
20041;DHT22;10181;48.072;9.884;2023-03-01T11:31:00;1.60;99.90
20041;DHT22;10181;48.072;9.884;2023-03-01T11:33:35;1.60;99.90
20041;DHT22;10181;48.072;9.884;2023-03-01T11:38:34;1.60;99.90
20041;DHT22;10181;48.072;9.884;2023-03-01T11:41:21;1.60;99.90
20041;DHT22;10181;48.072;9.884;2023-03-01T11:43:52;1.70;99.90
20041;DHT22;10181;48.072;9.884;2023-03-01T11:54:50;1.70;99.90
20041;DHT22;10181;48.072;9.884;2023-03-01T11:57:51;1.70;99.90
20041;DHT22;10181;48.072;9.884;2023-03-01T12:06:56;1.90;99.90
20041;DHT22;10181;48.072;9.884;2023-03-01T12:43:56;2.30;99.90
20041;DHT22;10181;48.072;9.884;2023-03-01T12:49:17;2.50;99.90
20041;DHT22;10181;48.072;9.884;2023-03-01T12:51:55;3.10;99.90
20041;DHT22;10181;48.072;9.884;2023-03-01T12:54:33;3.70;99.90
20041;DHT22;10181;48.072;9.884;2023-03-01T12:57:14;4.00;99.90
20041;DHT22;10181;48.072;9.884;2023-03-01T13:00:00;4.20;99.90
20041;DHT22;10181;48.072;9.884;2023-03-01T13:02:45;4.20;99.90
20041;DHT22;10181;48.072;9.884;2023-03-01T13:08:39;3.90;99.90
20041;DHT22;10181;48.072;9.884;2023-03-01T13:11:15;4.10;99.90
20041;DHT22;10181;48.072;9.884;2023-03-01T13:13:41;4.20;99.90
20041;DHT22;10181;48.072;9.884;2023-03-01T13:16:38;4.40;99.90
20041;DHT22;10181;48.072;9.884;2023-03-01T13:19:13;4.70;99.90
20041;DHT22;10181;48.072;9.884;2023-03-01T13:21:41;5.20;99.90
20041;DHT22;10181;48.072;9.884;2023-03-01T13:24:28;5.30;99.90
20041;DHT22;10181;48.072;9.884;2023-03-01T13:27:09;5.60;99.90
20041;DHT22;10181;48.072;9.884;2023-03-01T13:29:47;5.80;99.90
20041;DHT22;10181;48.072;9.884;2023-03-01T13:32:31;5.90;99.90
20041;DHT22;10181;48.072;9.884;2023-03-01T13:35:41;5.90;99.90
20041;DHT22;10181;48.072;9.884;2023-03-01T13:37:46;5.90;99.90
20041;DHT22;10181;48.072;9.884;2023-03-01T13:42:46;5.50;99.90
20041;DHT22;10181;48.072;9.884;2023-03-01T13:47:59;6.10;99.90
20041;DHT22;10181;48.072;9.884;2023-03-01T13:50:29;6.20;99.90
20041;DHT22;10181;48.072;9.884;2023-03-01T13:53:01;6.40;99.90
20041;DHT22;10181;48.072;9.884;2023-03-01T13:55:47;6.30;99.90
20041;DHT22;10181;48.072;9.884;2023-03-01T13:58:26;6.20;99.90
20041;DHT22;10181;48.072;9.884;2023-03-01T14:01:02;6.30;99.90
20041;DHT22;10181;48.072;9.884;2023-03-01T14:03:30;6.40;99.90
20041;DHT22;10181;48.072;9.884;2023-03-01T14:08:29;6.00;99.90
20041;DHT22;10181;48.072;9.884;2023-03-01T14:13:41;5.80;99.90
20041;DHT22;10181;48.072;9.884;2023-03-01T14:16:43;5.50;99.90
20041;DHT22;10181;48.072;9.884;2023-03-01T14:19:23;5.50;99.90
20041;DHT22;10181;48.072;9.884;2023-03-01T14:22:20;5.30;99.90
20041;DHT22;10181;48.072;9.884;2023-03-01T14:24:49;5.30;99.90
20041;DHT22;10181;48.072;9.884;2023-03-01T14:27:15;5.00;99.90
20041;DHT22;10181;48.072;9.884;2023-03-01T14:29:42;4.80;99.90
20041;DHT22;10181;48.072;9.884;2023-03-01T14:32:20;4.70;99.90
20041;DHT22;10181;48.072;9.884;2023-03-01T14:34:48;4.30;99.90
20041;DHT22;10181;48.072;9.884;2023-03-01T14:37:30;4.20;99.90
20041;DHT22;10181;48.072;9.884;2023-03-01T14:39:57;4.00;99.90
20041;DHT22;10181;48.072;9.884;2023-03-01T14:42:26;3.90;99.90
20041;DHT22;10181;48.072;9.884;2023-03-01T14:44:55;4.10;99.90
20041;DHT22;10181;48.072;9.884;2023-03-01T14:47:36;4.30;99.90
20041;DHT22;10181;48.072;9.884;2023-03-01T14:52:52;4.90;99.90
20041;DHT22;10181;48.072;9.884;2023-03-01T14:55:27;5.00;99.90
20041;DHT22;10181;48.072;9.884;2023-03-01T14:57:54;5.10;99.90
20041;DHT22;10181;48.072;9.884;2023-03-01T15:00:30;5.20;99.90
20041;DHT22;10181;48.072;9.884;2023-03-01T15:03:47;5.00;99.90
20041;DHT22;10181;48.072;9.884;2023-03-01T15:05:46;4.80;99.90
20041;DHT22;10181;48.072;9.884;2023-03-01T15:08:21;4.50;99.90
20041;DHT22;10181;48.072;9.884;2023-03-01T15:11:30;4.40;99.90
20041;DHT22;10181;48.072;9.884;2023-03-01T15:13:57;4.30;99.90
20041;DHT22;10181;48.072;9.884;2023-03-01T15:16:29;4.30;99.90
20041;DHT22;10181;48.072;9.884;2023-03-01T15:19:01;4.30;99.90
20041;DHT22;10181;48.072;9.884;2023-03-01T15:21:34;4.30;99.90
20041;DHT22;10181;48.072;9.884;2023-03-01T15:27:12;4.20;99.90
20041;DHT22;10181;48.072;9.884;2023-03-01T15:29:33;4.20;99.90
20041;DHT22;10181;48.072;9.884;2023-03-01T15:34:47;4.20;99.90
20041;DHT22;10181;48.072;9.884;2023-03-01T15:40:00;4.20;99.90
20041;DHT22;10181;48.072;9.884;2023-03-01T15:47:57;4.20;99.90
20041;DHT22;10181;48.072;9.884;2023-03-01T15:50:28;4.30;99.90
20041;DHT22;10181;48.072;9.884;2023-03-01T15:52:55;4.30;99.90
20041;DHT22;10181;48.072;9.884;2023-03-01T15:55:24;4.30;99.90
20041;DHT22;10181;48.072;9.884;2023-03-01T15:58:05;4.20;99.90
20041;DHT22;10181;48.072;9.884;2023-03-01T16:00:34;4.30;99.90
20041;DHT22;10181;48.072;9.884;2023-03-01T16:02:59;4.30;99.90
20041;DHT22;10181;48.072;9.884;2023-03-01T16:05:31;4.30;99.90
20041;DHT22;10181;48.072;9.884;2023-03-01T16:07:57;4.30;99.90
20041;DHT22;10181;48.072;9.884;2023-03-01T16:10:23;4.30;99.90
20041;DHT22;10181;48.072;9.884;2023-03-01T16:12:50;4.30;99.90
20041;DHT22;10181;48.072;9.884;2023-03-01T16:15:24;4.20;99.90
20041;DHT22;10181;48.072;9.884;2023-03-01T16:17:51;4.10;99.90
20041;DHT22;10181;48.072;9.884;2023-03-01T16:20:17;4.10;99.90
20041;DHT22;10181;48.072;9.884;2023-03-01T16:22:44;4.00;99.90
20041;DHT22;10181;48.072;9.884;2023-03-01T16:25:11;3.90;99.90
20041;DHT22;10181;48.072;9.884;2023-03-01T16:27:38;3.80;99.90
20041;DHT22;10181;48.072;9.884;2023-03-01T16:30:05;3.80;99.90
20041;DHT22;10181;48.072;9.884;2023-03-01T16:32:31;3.70;99.90
20041;DHT22;10181;48.072;9.884;2023-03-01T16:34:57;3.60;99.90
20041;DHT22;10181;48.072;9.884;2023-03-01T16:37:22;3.50;99.90
20041;DHT22;10181;48.072;9.884;2023-03-01T16:39:48;3.40;99.90
20041;DHT22;10181;48.072;9.884;2023-03-01T16:42:17;3.30;99.90
20041;DHT22;10181;48.072;9.884;2023-03-01T16:44:43;3.20;99.90
20041;DHT22;10181;48.072;9.884;2023-03-01T16:47:08;3.20;99.90
20041;DHT22;10181;48.072;9.884;2023-03-01T16:49:34;3.20;99.90
20041;DHT22;10181;48.072;9.884;2023-03-01T16:52:00;3.10;99.90
20041;DHT22;10181;48.072;9.884;2023-03-01T16:54:25;3.10;99.90
20041;DHT22;10181;48.072;9.884;2023-03-01T16:56:51;3.10;99.90
20041;DHT22;10181;48.072;9.884;2023-03-01T16:59:16;3.10;99.90
20041;DHT22;10181;48.072;9.884;2023-03-01T17:01:44;3.10;99.90
20041;DHT22;10181;48.072;9.884;2023-03-01T17:04:11;3.00;99.90
20041;DHT22;10181;48.072;9.884;2023-03-01T17:06:37;3.00;99.90
20041;DHT22;10181;48.072;9.884;2023-03-01T17:09:03;3.00;99.90
20041;DHT22;10181;48.072;9.884;2023-03-01T17:11:29;2.90;99.90
20041;DHT22;10181;48.072;9.884;2023-03-01T17:13:54;2.90;99.90
20041;DHT22;10181;48.072;9.884;2023-03-01T17:16:20;2.90;99.90
20041;DHT22;10181;48.072;9.884;2023-03-01T17:18:47;2.80;99.90
20041;DHT22;10181;48.072;9.884;2023-03-01T17:21:13;2.80;99.90
20041;DHT22;10181;48.072;9.884;2023-03-01T17:23:40;2.80;99.90
20041;DHT22;10181;48.072;9.884;2023-03-01T17:26:07;2.80;99.90
20041;DHT22;10181;48.072;9.884;2023-03-01T17:28:34;2.70;99.90
20041;DHT22;10181;48.072;9.884;2023-03-01T17:31:02;2.80;99.90
20041;DHT22;10181;48.072;9.884;2023-03-01T17:33:28;2.70;99.90
20041;DHT22;10181;48.072;9.884;2023-03-01T17:35:56;2.70;99.90
20041;DHT22;10181;48.072;9.884;2023-03-01T17:38:22;2.70;99.90
20041;DHT22;10181;48.072;9.884;2023-03-01T17:40:48;2.70;99.90
20041;DHT22;10181;48.072;9.884;2023-03-01T17:43:15;2.70;99.90
20041;DHT22;10181;48.072;9.884;2023-03-01T17:45:42;2.70;99.90
20041;DHT22;10181;48.072;9.884;2023-03-01T17:48:11;2.70;99.90
20041;DHT22;10181;48.072;9.884;2023-03-01T17:50:38;2.70;99.90
20041;DHT22;10181;48.072;9.884;2023-03-01T17:53:05;2.60;99.90
20041;DHT22;10181;48.072;9.884;2023-03-01T17:55:43;2.60;99.90
20041;DHT22;10181;48.072;9.884;2023-03-01T17:58:12;2.50;99.90